createdAt,value
2023-02-17T00:01:33.206Z,64.90
2023-02-17T00:04:00.357Z,65.00
2023-02-17T00:06:30.609Z,65.10
2023-02-17T00:08:58.179Z,65.10
2023-02-17T00:11:25.367Z,65.30
2023-02-17T00:13:55.244Z,65.40
2023-02-17T00:16:25.471Z,65.60
2023-02-17T00:18:56.007Z,66.30
2023-02-17T00:21:25.653Z,67.40
2023-02-17T00:23:53.509Z,68.40
2023-02-17T00:26:21.548Z,69.10
2023-02-17T00:28:49.623Z,68.80
2023-02-17T00:31:22.680Z,69.50
2023-02-17T00:33:55.498Z,69.70
2023-02-17T00:36:22.508Z,70.10
2023-02-17T00:38:49.661Z,70.40
2023-02-17T00:41:18.195Z,70.60
2023-02-17T00:43:46.874Z,71.30
2023-02-17T00:46:17.908Z,72.00
2023-02-17T00:48:47.731Z,72.10
2023-02-17T00:51:15.995Z,72.30
2023-02-17T00:53:43.445Z,72.50
2023-02-17T00:56:10.847Z,72.70
2023-02-17T00:58:38.638Z,72.90
2023-02-17T01:01:05.797Z,73.20
2023-02-17T01:03:32.705Z,73.10
2023-02-17T01:06:00.051Z,73.60
2023-02-17T01:08:26.977Z,73.90
2023-02-17T01:10:54.131Z,74.00
2023-02-17T01:13:21.473Z,74.10
2023-02-17T01:15:52.299Z,74.30
2023-02-17T01:18:23.683Z,74.80
2023-02-17T01:20:52.040Z,74.80
2023-02-17T01:23:19.517Z,74.90
2023-02-17T01:25:47.760Z,75.10
2023-02-17T01:28:20.141Z,75.30
2023-02-17T01:30:48.324Z,75.40
2023-02-17T01:33:15.716Z,75.30
2023-02-17T01:35:42.770Z,75.30
2023-02-17T01:38:09.727Z,75.30
2023-02-17T01:40:36.629Z,75.30
2023-02-17T01:43:03.673Z,75.50
2023-02-17T01:45:37.838Z,75.60
2023-02-17T01:48:34.072Z,75.60
2023-02-17T01:51:08.366Z,75.90
2023-02-17T01:53:45.550Z,75.60
2023-02-17T01:56:14.147Z,75.50
2023-02-17T01:58:47.197Z,75.60
2023-02-17T02:01:14.310Z,75.80
2023-02-17T02:03:42.366Z,75.80
2023-02-17T02:06:16.923Z,75.90
2023-02-17T02:09:07.549Z,76.20
2023-02-17T02:11:35.609Z,76.30
2023-02-17T02:14:06.673Z,76.10
2023-02-17T02:16:47.490Z,76.30
2023-02-17T02:19:39.546Z,76.80
2023-02-17T02:23:07.563Z,76.80
2023-02-17T02:26:01.740Z,77.20
2023-02-17T02:28:47.691Z,77.50
2023-02-17T02:31:45.195Z,77.70
2023-02-17T02:34:22.578Z,78.00
2023-02-17T02:37:23.881Z,77.50
2023-02-17T02:39:54.159Z,77.40
2023-02-17T02:42:24.394Z,78.10
2023-02-17T02:44:51.433Z,78.60
2023-02-17T02:47:46.599Z,78.90
2023-02-17T02:50:34.168Z,79.60
2023-02-17T02:53:22.590Z,79.40
2023-02-17T02:56:05.534Z,79.50
2023-02-17T02:59:10.174Z,79.40
2023-02-17T03:02:08.455Z,79.60
2023-02-17T03:04:44.769Z,80.20
2023-02-17T03:07:25.062Z,79.00
2023-02-17T03:09:58.153Z,79.30
2023-02-17T03:12:27.201Z,80.00
2023-02-17T03:15:08.373Z,80.40
2023-02-17T03:17:35.380Z,80.70
2023-02-17T03:20:05.998Z,80.90
2023-02-17T03:22:37.285Z,81.10
2023-02-17T03:25:04.760Z,81.30
2023-02-17T03:27:31.800Z,81.20
2023-02-17T03:29:58.860Z,81.20
2023-02-17T03:32:26.064Z,81.20
2023-02-17T03:34:52.917Z,81.80
2023-02-17T03:37:19.793Z,81.90
2023-02-17T03:39:46.945Z,81.80
2023-02-17T03:42:13.799Z,81.60
2023-02-17T03:44:40.753Z,81.70
2023-02-17T03:47:07.829Z,81.90
2023-02-17T03:49:35.028Z,81.80
2023-02-17T03:52:02.265Z,82.10
2023-02-17T03:54:29.305Z,82.30
2023-02-17T03:56:56.486Z,82.40
2023-02-17T03:59:23.427Z,82.30
2023-02-17T04:01:50.523Z,82.50
2023-02-17T04:04:17.508Z,82.90
2023-02-17T04:06:44.605Z,83.00
2023-02-17T04:09:11.631Z,83.00
2023-02-17T04:11:38.729Z,83.30
2023-02-17T04:14:05.764Z,83.50
2023-02-17T04:16:32.810Z,83.50
2023-02-17T04:18:59.773Z,83.80
2023-02-17T04:21:27.055Z,84.10
2023-02-17T04:23:55.060Z,84.00
2023-02-17T04:26:21.959Z,83.80
2023-02-17T04:28:48.982Z,84.00
2023-02-17T04:31:16.154Z,84.00
2023-02-17T04:33:43.258Z,84.20
2023-02-17T04:36:11.388Z,84.30
2023-02-17T04:38:39.723Z,84.40
2023-02-17T04:41:07.168Z,84.80
2023-02-17T04:43:34.416Z,85.10
2023-02-17T04:46:01.411Z,85.20
2023-02-17T04:48:28.633Z,85.30
2023-02-17T04:50:55.699Z,85.40
2023-02-17T04:53:22.788Z,85.40
2023-02-17T04:55:51.597Z,85.50
2023-02-17T04:58:19.971Z,85.60
2023-02-17T05:00:49.170Z,85.70
2023-02-17T05:03:17.525Z,85.60
2023-02-17T05:05:44.748Z,85.90
2023-02-17T05:08:11.628Z,85.90
2023-02-17T05:10:38.614Z,86.00
2023-02-17T05:13:05.459Z,86.30
2023-02-17T05:15:34.779Z,86.20
2023-02-17T05:18:02.836Z,86.20
2023-02-17T05:20:29.745Z,86.40
2023-02-17T05:22:56.801Z,86.50
2023-02-17T05:25:23.591Z,86.50
2023-02-17T05:27:50.495Z,86.70
2023-02-17T05:30:17.520Z,86.70
2023-02-17T05:32:44.523Z,86.60
2023-02-17T05:35:11.930Z,86.80
2023-02-17T05:37:38.959Z,86.90
2023-02-17T05:40:07.095Z,86.90
2023-02-17T05:42:34.164Z,86.70
2023-02-17T05:45:01.444Z,86.80
2023-02-17T05:47:28.515Z,86.90
2023-02-17T05:49:55.472Z,86.80
2023-02-17T05:52:22.425Z,86.80
2023-02-17T05:54:49.421Z,86.90
2023-02-17T05:57:16.501Z,86.90
2023-02-17T05:59:43.468Z,86.90
2023-02-17T06:02:10.356Z,87.10
2023-02-17T06:04:37.509Z,87.10
2023-02-17T06:07:04.449Z,87.10
2023-02-17T06:09:31.530Z,87.20
2023-02-17T06:11:58.469Z,87.00
2023-02-17T06:14:25.352Z,87.00
2023-02-17T06:16:53.646Z,86.90
2023-02-17T06:19:20.557Z,86.90
2023-02-17T06:21:47.484Z,86.90
2023-02-17T06:24:14.438Z,86.90
2023-02-17T06:26:41.358Z,87.00
2023-02-17T06:29:08.294Z,86.90
2023-02-17T06:31:35.417Z,86.80
2023-02-17T06:34:03.823Z,86.90
2023-02-17T06:36:31.845Z,86.90
2023-02-17T06:38:58.744Z,87.40
2023-02-17T06:41:25.683Z,86.80
2023-02-17T06:43:52.620Z,86.80
2023-02-17T06:46:19.635Z,86.70
2023-02-17T06:48:46.700Z,86.70
2023-02-17T06:51:13.670Z,86.80
2023-02-17T06:53:40.590Z,86.70
2023-02-17T06:56:07.853Z,86.60
2023-02-17T06:58:37.514Z,86.70
2023-02-17T07:01:05.427Z,86.60
2023-02-17T07:03:32.713Z,86.60
2023-02-17T07:06:00.560Z,86.60
2023-02-17T07:08:27.613Z,86.60
2023-02-17T07:10:54.716Z,86.60
2023-02-17T07:13:21.612Z,86.50
2023-02-17T07:15:48.582Z,86.60
2023-02-17T07:18:15.464Z,86.60
2023-02-17T07:20:42.407Z,86.50
2023-02-17T07:23:09.743Z,86.40
2023-02-17T07:25:36.884Z,86.20
2023-02-17T07:28:03.888Z,86.10
2023-02-17T07:30:30.960Z,86.10
2023-02-17T07:32:57.933Z,86.00
2023-02-17T07:35:25.240Z,86.10
2023-02-17T07:37:52.147Z,86.10
2023-02-17T07:40:19.460Z,86.00
2023-02-17T07:42:46.343Z,86.00
2023-02-17T07:45:13.734Z,86.00
2023-02-17T07:47:40.683Z,85.90
2023-02-17T07:50:08.541Z,85.70
2023-02-17T07:52:35.609Z,85.50
2023-02-17T07:55:02.549Z,85.40
2023-02-17T07:57:30.335Z,85.30
2023-02-17T07:59:57.166Z,85.20
2023-02-17T08:02:24.059Z,85.10
2023-02-17T08:04:52.551Z,85.80
2023-02-17T08:07:19.814Z,85.10
2023-02-17T08:10:05.233Z,85.00
2023-02-17T08:12:50.727Z,84.90
2023-02-17T08:15:17.612Z,84.80
2023-02-17T08:17:44.713Z,84.70
2023-02-17T08:20:13.393Z,84.40
2023-02-17T08:22:40.671Z,84.30
2023-02-17T08:25:07.865Z,84.30
2023-02-17T08:27:34.785Z,84.10
2023-02-17T08:30:01.867Z,84.00
2023-02-17T08:32:28.795Z,84.00
2023-02-17T08:34:56.739Z,84.90
2023-02-17T08:37:23.903Z,84.00
2023-02-17T08:39:50.957Z,83.90
2023-02-17T08:42:18.060Z,84.10
2023-02-17T08:44:45.325Z,84.20
2023-02-17T08:47:12.181Z,84.40
2023-02-17T08:49:40.227Z,84.70
2023-02-17T08:52:07.424Z,85.00
2023-02-17T08:54:34.458Z,85.00
2023-02-17T08:57:01.392Z,85.40
2023-02-17T08:59:28.418Z,86.00
2023-02-17T09:01:55.777Z,86.50
2023-02-17T09:04:22.778Z,86.70
2023-02-17T09:06:53.371Z,87.40
2023-02-17T09:09:23.073Z,87.40
2023-02-17T09:11:50.220Z,87.90
2023-02-17T09:14:17.400Z,88.10
2023-02-17T09:16:44.396Z,88.60
2023-02-17T09:19:11.471Z,89.10
2023-02-17T09:21:38.503Z,89.60
2023-02-17T09:24:06.029Z,90.00
2023-02-17T09:26:34.968Z,90.10
2023-02-17T09:29:03.738Z,90.10
2023-02-17T09:31:32.008Z,90.30
2023-02-17T09:33:59.384Z,90.50
2023-02-17T09:36:34.148Z,90.60
2023-02-17T09:39:01.796Z,90.70
2023-02-17T09:41:47.939Z,90.60
2023-02-17T09:44:22.294Z,90.90
2023-02-17T09:47:05.816Z,90.80
2023-02-17T09:49:56.944Z,90.90
2023-02-17T09:52:44.965Z,91.10
2023-02-17T09:55:35.069Z,91.10
2023-02-17T09:58:10.621Z,91.40
2023-02-17T10:00:50.418Z,91.50
2023-02-17T10:03:48.494Z,91.60
2023-02-17T10:06:29.404Z,91.70
2023-02-17T10:09:24.340Z,91.50
2023-02-17T10:12:04.248Z,91.60
2023-02-17T10:14:45.382Z,91.60
2023-02-17T10:17:41.006Z,91.90
2023-02-17T10:20:28.927Z,92.10
2023-02-17T10:23:04.998Z,92.00
2023-02-17T10:26:42.578Z,91.80
2023-02-17T10:29:52.742Z,92.10
2023-02-17T10:32:30.352Z,92.20
2023-02-17T10:35:23.319Z,92.00
2023-02-17T10:38:03.834Z,92.20
2023-02-17T10:40:31.588Z,92.10
2023-02-17T10:43:07.282Z,92.10
2023-02-17T10:45:44.958Z,92.20
2023-02-17T10:48:32.563Z,92.40
2023-02-17T10:51:01.391Z,92.30
2023-02-17T10:53:39.451Z,92.40
2023-02-17T10:56:34.547Z,92.40
2023-02-17T10:59:06.361Z,92.70
2023-02-17T11:01:34.483Z,92.80
2023-02-17T11:04:08.202Z,92.60
2023-02-17T11:06:49.628Z,92.60
2023-02-17T11:09:31.995Z,92.60
2023-02-17T11:12:25.066Z,92.70
2023-02-17T11:14:55.489Z,92.70
2023-02-17T11:17:30.472Z,92.70
2023-02-17T11:20:06.156Z,92.80
2023-02-17T11:22:45.898Z,92.80
2023-02-17T11:25:32.189Z,92.70
2023-02-17T11:28:02.849Z,92.70
2023-02-17T11:30:32.950Z,92.60
2023-02-17T11:33:14.216Z,92.80
2023-02-17T11:35:45.999Z,92.70
2023-02-17T11:38:18.921Z,92.60
2023-02-17T11:41:02.339Z,92.70
2023-02-17T11:43:32.879Z,92.70
2023-02-17T11:46:16.929Z,92.50
2023-02-17T11:48:57.121Z,92.40
2023-02-17T11:51:48.893Z,92.50
2023-02-17T11:54:31.903Z,92.60
2023-02-17T11:57:34.998Z,92.60
2023-02-17T12:00:19.945Z,92.80
2023-02-17T12:03:36.442Z,92.80
2023-02-17T12:06:21.654Z,92.90
2023-02-17T12:09:08.092Z,92.80
2023-02-17T12:11:48.904Z,92.80
2023-02-17T12:14:43.318Z,92.90
2023-02-17T12:18:04.747Z,93.10
2023-02-17T12:20:45.714Z,92.90
2023-02-17T12:23:46.254Z,92.80
2023-02-17T12:26:38.374Z,92.70
2023-02-17T12:29:25.812Z,92.70
2023-02-17T12:32:12.607Z,92.50
2023-02-17T12:34:57.111Z,92.30
2023-02-17T12:37:34.632Z,92.20
2023-02-17T12:40:16.647Z,92.10
2023-02-17T12:43:01.578Z,91.90
2023-02-17T12:45:46.655Z,92.10
2023-02-17T12:48:24.726Z,92.20
2023-02-17T12:51:02.437Z,92.00
2023-02-17T12:53:51.690Z,92.10
2023-02-17T12:56:33.549Z,92.00
2023-02-17T12:59:17.225Z,91.90
2023-02-17T13:01:54.726Z,91.70
2023-02-17T13:04:25.172Z,91.80
2023-02-17T13:07:02.493Z,91.60
2023-02-17T13:09:41.091Z,91.70
2023-02-17T13:12:23.252Z,91.60
2023-02-17T13:14:59.252Z,91.80
2023-02-17T13:17:40.748Z,91.40
2023-02-17T13:20:10.605Z,91.30
2023-02-17T13:22:43.847Z,91.50
2023-02-17T13:25:37.608Z,91.30
2023-02-17T13:28:19.862Z,91.60
2023-02-17T13:30:48.698Z,91.10
2023-02-17T13:33:21.511Z,91.10
2023-02-17T13:35:49.065Z,91.10
2023-02-17T13:38:31.812Z,90.90
2023-02-17T13:41:06.350Z,91.20
2023-02-17T13:43:42.486Z,90.70
2023-02-17T13:46:26.985Z,90.70
2023-02-17T13:49:06.480Z,90.30
2023-02-17T13:51:34.219Z,90.50
2023-02-17T13:54:09.055Z,90.20
2023-02-17T13:56:36.150Z,90.70
2023-02-17T13:59:08.440Z,90.10
2023-02-17T14:01:39.564Z,90.20
2023-02-17T14:04:27.577Z,90.30
2023-02-17T14:06:59.339Z,90.30
2023-02-17T14:09:33.260Z,90.30
2023-02-17T14:12:03.460Z,90.70
2023-02-17T14:14:38.248Z,90.30
2023-02-17T14:17:32.642Z,90.50
2023-02-17T14:20:00.812Z,90.30
2023-02-17T14:22:35.227Z,90.30
2023-02-17T14:25:14.179Z,90.70
2023-02-17T14:27:47.527Z,90.70
2023-02-17T14:30:34.163Z,90.60
2023-02-17T14:33:07.517Z,90.40
2023-02-17T14:35:35.578Z,90.30
2023-02-17T14:38:20.960Z,90.20
2023-02-17T14:40:48.722Z,90.70
2023-02-17T14:43:15.982Z,90.80
2023-02-17T14:45:43.031Z,90.70
2023-02-17T14:48:10.011Z,90.40
2023-02-17T14:50:42.251Z,90.60
2023-02-17T14:53:17.192Z,90.70
2023-02-17T14:55:54.118Z,90.60
2023-02-17T14:58:23.841Z,90.70
2023-02-17T15:00:51.626Z,90.50
2023-02-17T15:03:18.799Z,90.60
2023-02-17T15:05:46.254Z,90.60
2023-02-17T15:08:17.695Z,90.10
2023-02-17T15:10:45.447Z,90.10
2023-02-17T15:13:21.658Z,89.80
2023-02-17T15:15:49.585Z,90.30
2023-02-17T15:18:19.413Z,90.10
2023-02-17T15:20:50.220Z,90.50
2023-02-17T15:23:22.873Z,90.40
2023-02-17T15:25:50.127Z,90.40
2023-02-17T15:28:20.069Z,90.60
2023-02-17T15:30:52.226Z,90.90
2023-02-17T15:33:21.778Z,90.90
2023-02-17T15:35:53.502Z,91.00
2023-02-17T15:38:20.927Z,91.30
2023-02-17T15:40:48.020Z,91.00
2023-02-17T15:43:21.424Z,91.20
2023-02-17T15:45:48.880Z,91.50
2023-02-17T15:48:27.310Z,91.20
2023-02-17T15:50:54.466Z,91.20
2023-02-17T15:53:21.809Z,91.30
2023-02-17T15:55:49.119Z,91.50
2023-02-17T15:58:19.549Z,91.40
2023-02-17T16:00:47.047Z,91.60
2023-02-17T16:03:15.016Z,91.80
2023-02-17T16:05:43.418Z,91.60
2023-02-17T16:08:10.395Z,91.70
2023-02-17T16:10:39.473Z,91.70
2023-02-17T16:13:06.651Z,91.40
2023-02-17T16:15:34.000Z,91.70
2023-02-17T16:18:00.950Z,91.50
2023-02-17T16:20:34.732Z,91.50
2023-02-17T16:23:02.678Z,91.50
2023-02-17T16:25:30.207Z,91.60
2023-02-17T16:27:57.361Z,91.40
2023-02-17T16:30:33.234Z,91.30
2023-02-17T16:33:00.828Z,91.50
2023-02-17T16:35:31.497Z,91.30
2023-02-17T16:38:03.906Z,91.20
2023-02-17T16:40:35.371Z,91.20
2023-02-17T16:43:03.698Z,91.20
2023-02-17T16:45:32.788Z,90.90
2023-02-17T16:48:01.575Z,90.70
2023-02-17T16:50:32.787Z,90.60
2023-02-17T16:53:04.086Z,90.60
2023-02-17T16:55:34.704Z,90.40
2023-02-17T16:58:02.967Z,90.10
2023-02-17T17:00:33.064Z,90.00
2023-02-17T17:03:00.095Z,90.00
2023-02-17T17:05:29.577Z,89.60
2023-02-17T17:07:57.076Z,89.40
2023-02-17T17:10:31.031Z,89.10
2023-02-17T17:12:58.671Z,88.80
2023-02-17T17:15:25.732Z,88.50
2023-02-17T17:18:00.457Z,87.90
2023-02-17T17:20:34.138Z,87.30
2023-02-17T17:23:14.810Z,86.80
2023-02-17T17:25:46.360Z,86.70
2023-02-17T17:28:18.810Z,86.40
2023-02-17T17:30:47.850Z,86.00
2023-02-17T17:33:16.182Z,86.00
2023-02-17T17:35:43.525Z,85.90
2023-02-17T17:38:15.498Z,85.60
2023-02-17T17:40:53.000Z,85.40
2023-02-17T17:43:22.002Z,85.20
2023-02-17T17:45:50.321Z,84.90
2023-02-17T17:48:18.680Z,84.70
2023-02-17T17:50:46.143Z,84.30
2023-02-17T17:53:13.326Z,83.90
2023-02-17T17:55:40.340Z,83.60
2023-02-17T17:58:07.474Z,83.60
2023-02-17T18:00:34.364Z,83.30
2023-02-17T18:03:01.368Z,83.00
2023-02-17T18:05:28.393Z,82.70
2023-02-17T18:07:56.300Z,82.90
2023-02-17T18:10:23.366Z,84.10
2023-02-17T18:12:50.542Z,84.90
2023-02-17T18:15:18.649Z,85.80
2023-02-17T18:17:47.302Z,86.10
2023-02-17T18:20:14.731Z,86.30
2023-02-17T18:22:42.005Z,87.10
2023-02-17T18:25:09.990Z,87.50
2023-02-17T18:27:42.823Z,87.90
2023-02-17T18:30:18.656Z,88.40
2023-02-17T18:32:46.237Z,88.20
2023-02-17T18:35:14.009Z,88.50
2023-02-17T18:37:41.336Z,88.90
2023-02-17T18:40:14.799Z,89.40
2023-02-17T18:42:45.420Z,89.20
2023-02-17T18:45:13.734Z,89.60
2023-02-17T18:47:40.775Z,90.00
2023-02-17T18:50:10.261Z,90.20
2023-02-17T18:52:39.339Z,90.20
2023-02-17T18:55:07.559Z,90.30
2023-02-17T18:57:34.719Z,90.20
2023-02-17T19:00:02.479Z,90.40
2023-02-17T19:02:29.528Z,90.50
2023-02-17T19:04:56.854Z,90.50
2023-02-17T19:07:23.823Z,90.50
2023-02-17T19:09:54.510Z,90.50
2023-02-17T19:12:21.652Z,90.60
2023-02-17T19:14:53.265Z,90.60
2023-02-17T19:17:20.420Z,90.40
2023-02-17T19:19:47.667Z,90.30
2023-02-17T19:22:14.774Z,90.10
2023-02-17T19:24:42.672Z,90.00
2023-02-17T19:27:10.491Z,89.60
2023-02-17T19:29:37.612Z,89.20
2023-02-17T19:32:05.473Z,89.30
2023-02-17T19:34:32.651Z,88.90
2023-02-17T19:36:59.755Z,88.90
2023-02-17T19:39:26.689Z,88.50
2023-02-17T19:41:53.785Z,88.10
2023-02-17T19:44:20.753Z,87.50
2023-02-17T19:46:47.803Z,87.20
2023-02-17T19:49:15.048Z,86.90
2023-02-17T19:51:42.311Z,85.70
2023-02-17T19:54:09.362Z,85.50
2023-02-17T19:56:39.080Z,84.80
2023-02-17T19:59:06.207Z,84.10
2023-02-17T20:01:34.534Z,83.00
2023-02-17T20:04:04.940Z,81.80
2023-02-17T20:06:41.814Z,81.00
2023-02-17T20:09:14.858Z,80.90
2023-02-17T20:11:43.612Z,79.70
2023-02-17T20:14:11.180Z,79.20
2023-02-17T20:16:39.064Z,78.40
2023-02-17T20:19:07.430Z,77.80
2023-02-17T20:21:38.405Z,76.60
2023-02-17T20:24:05.808Z,76.30
2023-02-17T20:26:39.165Z,76.10
2023-02-17T20:29:06.329Z,75.30
2023-02-17T20:31:36.065Z,74.90
2023-02-17T20:34:05.236Z,73.80
2023-02-17T20:36:32.651Z,73.50
2023-02-17T20:39:00.423Z,73.50
2023-02-17T20:41:27.521Z,73.40
2023-02-17T20:43:54.808Z,72.90
2023-02-17T20:46:27.453Z,72.70
2023-02-17T20:48:55.502Z,72.00
2023-02-17T20:51:23.480Z,71.90
2023-02-17T20:53:51.106Z,71.90
2023-02-17T20:56:22.304Z,71.70
2023-02-17T20:58:50.771Z,71.50
2023-02-17T21:01:19.876Z,70.70
2023-02-17T21:03:48.161Z,70.40
2023-02-17T21:06:25.462Z,71.00
2023-02-17T21:09:07.097Z,69.80
2023-02-17T21:11:34.610Z,69.80
2023-02-17T21:14:01.708Z,70.00
2023-02-17T21:16:31.167Z,69.60
2023-02-17T21:19:00.133Z,69.40
2023-02-17T21:21:28.314Z,69.40
2023-02-17T21:23:56.860Z,69.20
2023-02-17T21:26:42.532Z,69.30
2023-02-17T21:29:09.467Z,68.70
2023-02-17T21:31:36.937Z,69.10
2023-02-17T21:34:04.483Z,68.80
2023-02-17T21:36:31.817Z,68.80
2023-02-17T21:38:59.204Z,68.60
2023-02-17T21:41:28.888Z,68.40
2023-02-17T21:44:14.668Z,68.50
2023-02-17T21:46:43.257Z,68.30
2023-02-17T21:49:11.550Z,68.30
2023-02-17T21:51:40.392Z,68.20
2023-02-17T21:54:09.619Z,68.00
2023-02-17T21:56:37.344Z,68.10
2023-02-17T21:59:05.382Z,67.90
2023-02-17T22:01:32.520Z,68.10
2023-02-17T22:03:59.562Z,68.30
2023-02-17T22:06:39.186Z,68.00
2023-02-17T22:09:08.520Z,68.00
2023-02-17T22:11:41.242Z,68.80
2023-02-17T22:14:20.157Z,68.10
2023-02-17T22:16:48.731Z,67.90
2023-02-17T22:19:23.095Z,68.30
2023-02-17T22:21:51.354Z,68.30
2023-02-17T22:24:20.799Z,68.60
2023-02-17T22:26:49.365Z,68.40
2023-02-17T22:29:16.221Z,68.30
2023-02-17T22:31:43.360Z,68.60
2023-02-17T22:34:36.489Z,68.30
2023-02-17T22:37:03.740Z,68.10
2023-02-17T22:39:30.685Z,67.80
2023-02-17T22:41:57.666Z,67.70
2023-02-17T22:44:24.492Z,67.50
2023-02-17T22:46:51.613Z,67.60
2023-02-17T22:49:18.613Z,67.50
2023-02-17T22:51:45.524Z,67.30
2023-02-17T22:54:12.503Z,67.10
2023-02-17T22:56:39.458Z,67.20
2023-02-17T22:59:06.554Z,67.30
2023-02-17T23:01:36.271Z,67.00
2023-02-17T23:04:04.590Z,67.00
2023-02-17T23:06:35.903Z,67.20
2023-02-17T23:09:05.168Z,66.80
2023-02-17T23:11:54.542Z,66.90
2023-02-17T23:14:30.499Z,67.00
2023-02-17T23:17:05.013Z,66.90
2023-02-17T23:19:32.955Z,67.00
2023-02-17T23:22:05.522Z,67.30
2023-02-17T23:24:32.974Z,67.30
2023-02-17T23:27:01.835Z,67.20
2023-02-17T23:29:30.605Z,67.20
2023-02-17T23:31:58.263Z,67.20
2023-02-17T23:34:25.240Z,67.40
2023-02-17T23:36:53.244Z,67.50
2023-02-17T23:39:20.312Z,67.40
2023-02-17T23:41:47.140Z,67.50
2023-02-17T23:44:15.901Z,67.60
2023-02-17T23:46:44.964Z,67.80
2023-02-17T23:49:17.125Z,68.00
2023-02-17T23:51:46.087Z,68.10
2023-02-17T23:54:13.240Z,68.20
2023-02-17T23:56:40.354Z,68.40
2023-02-17T23:59:07.462Z,68.50
